createdAt,value
2019-04-22T00:00:49.310Z,1001.44
2019-04-22T00:01:50.292Z,1001.47
2019-04-22T00:02:52.563Z,1001.45
2019-04-22T00:03:53.212Z,1001.42
2019-04-22T00:04:58.697Z,1001.45
2019-04-22T00:06:07.229Z,1001.45
2019-04-22T00:07:11.460Z,1001.41
2019-04-22T00:08:08.589Z,1001.45
2019-04-22T00:09:17.386Z,1001.41
2019-04-22T00:10:15.320Z,1001.44
2019-04-22T00:11:24.307Z,1001.45
2019-04-22T00:12:16.238Z,1001.45
2019-04-22T00:13:21.887Z,1001.38
2019-04-22T00:14:08.310Z,1001.44
2019-04-22T00:15:03.695Z,1001.40
2019-04-22T00:16:07.351Z,1001.41
2019-04-22T00:17:16.420Z,1001.38
2019-04-22T00:18:13.284Z,1001.33
2019-04-22T00:19:33.866Z,1001.35
2019-04-22T00:20:14.782Z,1001.30
2019-04-22T00:21:12.554Z,1001.33
2019-04-22T00:22:17.920Z,1001.29
2019-04-22T00:23:14.094Z,1001.37
2019-04-22T00:24:12.153Z,1001.29
2019-04-22T00:25:12.623Z,1001.30
2019-04-22T00:26:20.704Z,1001.34
2019-04-22T00:27:14.092Z,1001.32
2019-04-22T00:28:19.992Z,1001.32
2019-04-22T00:29:34.184Z,1001.29
2019-04-22T00:31:18.277Z,1001.28
2019-04-22T00:32:16.153Z,1001.23
2019-04-22T00:33:08.029Z,1001.26
2019-04-22T00:34:11.159Z,1001.31
2019-04-22T00:35:12.754Z,1001.20
2019-04-22T00:36:08.871Z,1001.18
2019-04-22T00:37:08.031Z,1001.25
2019-04-22T00:38:17.411Z,1001.19
2019-04-22T00:39:18.984Z,1001.18
2019-04-22T00:40:14.236Z,1001.22
2019-04-22T00:41:13.148Z,1001.16
2019-04-22T00:42:17.913Z,1001.14
2019-04-22T00:43:13.937Z,1001.09
2019-04-22T00:44:09.580Z,1001.08
2019-04-22T00:45:15.620Z,1001.09
2019-04-22T00:46:10.938Z,1001.09
2019-04-22T00:47:21.509Z,1001.10
2019-04-22T00:48:17.818Z,1001.10
2019-04-22T00:49:52.411Z,1001.08
2019-04-22T00:50:20.926Z,1001.10
2019-04-22T00:51:17.430Z,1001.09
2019-04-22T00:52:10.796Z,1001.05
2019-04-22T00:53:26.075Z,1001.05
2019-04-22T00:54:08.567Z,1001.07
2019-04-22T00:55:12.362Z,1001.04
2019-04-22T00:56:10.664Z,1001.01
2019-04-22T00:57:08.727Z,1001.05
2019-04-22T00:58:12.174Z,1001.04
2019-04-22T00:59:15.628Z,1001.07
2019-04-22T01:00:11.934Z,1001.00
2019-04-22T01:01:14.390Z,1000.93
2019-04-22T01:02:13.073Z,1001.04
2019-04-22T01:03:21.566Z,1000.97
2019-04-22T01:04:21.462Z,1000.92
2019-04-22T01:05:16.804Z,1000.96
2019-04-22T01:06:14.553Z,1000.91
2019-04-22T01:07:11.841Z,1000.91
2019-04-22T01:08:15.072Z,1000.95
2019-04-22T01:09:11.259Z,1000.93
2019-04-22T01:10:12.767Z,1000.96
2019-04-22T01:11:17.138Z,1000.95
2019-04-22T01:12:13.836Z,1000.93
2019-04-22T01:13:16.684Z,1000.97
2019-04-22T01:14:09.255Z,1001.04
2019-04-22T01:15:17.924Z,1000.99
2019-04-22T01:16:10.811Z,1001.04
2019-04-22T01:17:15.676Z,1001.03
2019-04-22T01:18:12.621Z,1000.95
2019-04-22T01:19:07.640Z,1000.98
2019-04-22T01:20:24.506Z,1000.99
2019-04-22T01:21:16.429Z,1001.03
2019-04-22T01:22:13.674Z,1001.00
2019-04-22T01:23:12.726Z,1001.00
2019-04-22T01:24:09.134Z,1000.92
2019-04-22T01:25:12.953Z,1000.98
2019-04-22T01:26:09.825Z,1000.96
2019-04-22T01:27:04.270Z,1000.95
2019-04-22T01:28:03.887Z,1000.94
2019-04-22T01:28:59.545Z,1000.91
2019-04-22T01:29:56.527Z,1000.87
2019-04-22T01:30:53.326Z,1000.96
2019-04-22T01:31:47.794Z,1000.88
2019-04-22T01:32:49.379Z,1000.90
2019-04-22T01:34:00.470Z,1000.88
2019-04-22T01:34:57.998Z,1000.87
2019-04-22T01:36:01.407Z,1000.89
2019-04-22T01:37:07.732Z,1000.87
2019-04-22T01:38:06.528Z,1000.87
2019-04-22T01:39:14.049Z,1000.85
2019-04-22T01:40:14.849Z,1000.86
2019-04-22T01:41:20.183Z,1000.77
2019-04-22T01:42:12.184Z,1000.77
2019-04-22T01:44:21.533Z,1000.79
2019-04-22T01:45:13.900Z,1000.77
2019-04-22T01:46:21.378Z,1000.74
2019-04-22T01:47:12.858Z,1000.71
2019-04-22T01:48:17.711Z,1000.70
2019-04-22T01:49:15.998Z,1000.78
2019-04-22T01:50:16.913Z,1000.68
2019-04-22T01:51:09.261Z,1000.73
2019-04-22T01:52:14.325Z,1000.73
2019-04-22T01:53:16.432Z,1000.72
2019-04-22T01:54:12.192Z,1000.76
2019-04-22T01:55:17.862Z,1000.71
2019-04-22T01:56:17.411Z,1000.70
2019-04-22T01:57:10.965Z,1000.70
2019-04-22T01:58:09.011Z,1000.70
2019-04-22T01:59:12.631Z,1000.70
2019-04-22T02:00:00.642Z,1000.69
2019-04-22T02:01:13.571Z,1000.70
2019-04-22T02:02:14.396Z,1000.68
2019-04-22T02:03:12.485Z,1000.69
2019-04-22T02:04:21.072Z,1000.66
2019-04-22T02:05:12.276Z,1000.70
2019-04-22T02:06:17.117Z,1000.61
2019-04-22T02:07:16.917Z,1000.62
2019-04-22T02:08:16.620Z,1000.66
2019-04-22T02:09:20.293Z,1000.61
2019-04-22T02:10:19.363Z,1000.74
2019-04-22T02:11:14.429Z,1000.73
2019-04-22T02:12:17.703Z,1000.69
2019-04-22T02:13:15.869Z,1000.71
2019-04-22T02:14:11.875Z,1000.74
2019-04-22T02:15:13.874Z,1000.63
2019-04-22T02:16:16.200Z,1000.59
2019-04-22T02:17:25.238Z,1000.60
2019-04-22T02:18:18.086Z,1000.66
2019-04-22T02:19:20.729Z,1000.65
2019-04-22T02:20:13.525Z,1000.64
2019-04-22T02:21:13.849Z,1000.66
2019-04-22T02:22:07.376Z,1000.66
2019-04-22T02:23:30.584Z,1000.67
2019-04-22T02:24:09.052Z,1000.62
2019-04-22T02:25:18.192Z,1000.65
2019-04-22T02:27:23.971Z,1000.54
2019-04-22T02:28:16.470Z,1000.62
2019-04-22T02:29:17.141Z,1000.55
2019-04-22T02:30:05.495Z,1000.66
2019-04-22T02:32:27.257Z,1000.55
2019-04-22T02:34:22.306Z,1000.46
2019-04-22T02:35:31.231Z,1000.51
2019-04-22T02:38:31.406Z,1000.43
2019-04-22T02:39:12.126Z,1000.37
2019-04-22T02:40:27.643Z,1000.40
2019-04-22T02:41:23.172Z,1000.44
2019-04-22T02:43:41.101Z,1000.38
2019-04-22T02:44:16.905Z,1000.38
2019-04-22T02:45:18.205Z,1000.40
2019-04-22T02:48:31.880Z,1000.32
2019-04-22T02:49:23.068Z,1000.33
2019-04-22T02:50:08.995Z,1000.35
2019-04-22T02:51:18.164Z,1000.25
2019-04-22T02:52:17.633Z,1000.18
2019-04-22T02:53:41.816Z,1000.19
2019-04-22T02:55:15.424Z,1000.22
2019-04-22T02:57:27.969Z,1000.09
2019-04-22T02:58:27.703Z,1000.14
2019-04-22T02:59:14.144Z,1000.14
2019-04-22T03:00:21.666Z,1000.08
2019-04-22T03:01:27.506Z,1000.07
2019-04-22T03:02:25.122Z,1000.02
2019-04-22T03:03:36.593Z,1000.14
2019-04-22T03:05:33.193Z,1000.08
2019-04-22T03:06:29.552Z,1000.09
2019-04-22T03:07:12.806Z,1000.12
2019-04-22T03:08:25.280Z,1000.03
2019-04-22T03:09:19.066Z,1000.06
2019-04-22T03:10:20.595Z,1000.10
2019-04-22T03:11:22.296Z,1000.01
2019-04-22T03:12:16.363Z,1000.02
2019-04-22T03:13:21.714Z,999.99
2019-04-22T03:14:18.502Z,999.96
2019-04-22T03:15:29.974Z,999.96
2019-04-22T03:17:16.267Z,999.90
2019-04-22T03:18:19.516Z,999.92
2019-04-22T03:19:25.925Z,999.94
2019-04-22T03:20:09.216Z,999.88
2019-04-22T03:21:18.675Z,999.92
2019-04-22T03:22:16.931Z,999.84
2019-04-22T03:23:25.483Z,999.86
2019-04-22T03:24:20.249Z,999.81
2019-04-22T03:26:27.350Z,999.82
2019-04-22T03:27:16.259Z,999.77
2019-04-22T03:28:18.709Z,999.78
2019-04-22T03:29:10.599Z,999.85
2019-04-22T03:30:45.542Z,999.84
2019-04-22T03:32:40.413Z,999.75
2019-04-22T03:33:37.011Z,999.76
2019-04-22T03:36:49.076Z,999.75
2019-04-22T03:38:25.390Z,999.74
2019-04-22T03:40:22.684Z,999.78
2019-04-22T03:41:32.220Z,999.71
2019-04-22T03:43:19.613Z,999.77
2019-04-22T03:44:26.652Z,999.77
2019-04-22T03:46:16.664Z,999.79
2019-04-22T03:47:26.092Z,999.81
2019-04-22T03:48:16.273Z,999.79
2019-04-22T03:51:27.313Z,999.75
2019-04-22T03:53:15.102Z,999.74
2019-04-22T03:56:47.248Z,999.66
2019-04-22T03:58:10.645Z,999.68
2019-04-22T04:00:28.484Z,999.67
2019-04-22T04:01:18.379Z,999.65
2019-04-22T04:02:21.434Z,999.70
2019-04-22T04:03:11.989Z,999.71
2019-04-22T04:04:25.643Z,999.74
2019-04-22T04:05:26.363Z,999.69
2019-04-22T04:06:22.250Z,999.65
2019-04-22T04:07:36.243Z,999.65
2019-04-22T04:09:33.381Z,999.62
2019-04-22T04:10:37.116Z,999.65
2019-04-22T04:11:30.290Z,999.64
2019-04-22T04:12:14.759Z,999.63
2019-04-22T04:15:21.644Z,999.54
2019-04-22T04:16:19.567Z,999.58
2019-04-22T04:18:13.303Z,999.53
2019-04-22T04:19:28.168Z,999.63
2019-04-22T04:20:23.343Z,999.50
2019-04-22T04:22:30.412Z,999.50
2019-04-22T04:23:38.303Z,999.51
2019-04-22T04:24:38.140Z,999.55
2019-04-22T04:25:26.576Z,999.56
2019-04-22T04:26:17.021Z,999.51
2019-04-22T04:28:31.300Z,999.53
2019-04-22T04:29:37.740Z,999.48
2019-04-22T04:31:27.350Z,999.52
2019-04-22T04:35:25.652Z,999.45
2019-04-22T04:36:23.148Z,999.47
2019-04-22T04:37:37.370Z,999.43
2019-04-22T04:38:40.909Z,999.41
2019-04-22T04:39:17.986Z,999.34
2019-04-22T04:40:21.323Z,999.38
2019-04-22T04:43:15.626Z,999.32
2019-04-22T04:45:40.840Z,999.33
2019-04-22T04:46:27.089Z,999.44
2019-04-22T04:47:39.043Z,999.34
2019-04-22T04:48:18.499Z,999.34
2019-04-22T04:50:12.055Z,999.36
2019-04-22T04:51:33.821Z,999.40
2019-04-22T04:53:20.541Z,999.37
2019-04-22T04:55:22.077Z,999.32
2019-04-22T04:56:20.420Z,999.34
2019-04-22T04:58:28.942Z,999.27
2019-04-22T05:02:24.192Z,999.34
2019-04-22T05:03:21.335Z,999.38
2019-04-22T05:06:22.277Z,999.36
2019-04-22T05:07:17.812Z,999.40
2019-04-22T05:11:32.921Z,999.34
2019-04-22T05:12:25.562Z,999.33
2019-04-22T05:13:10.776Z,999.30
2019-04-22T05:14:17.282Z,999.30
2019-04-22T05:16:24.454Z,999.28
2019-04-22T05:17:18.497Z,999.31
2019-04-22T05:18:12.511Z,999.23
2019-04-22T05:19:15.479Z,999.25
2019-04-22T05:21:13.979Z,999.26
2019-04-22T05:22:28.000Z,999.29
2019-04-22T05:23:16.246Z,999.27
2019-04-22T05:24:19.380Z,999.15
2019-04-22T05:25:11.735Z,999.17
2019-04-22T05:26:10.753Z,999.17
2019-04-22T05:27:19.979Z,999.13
2019-04-22T05:28:15.087Z,999.17
2019-04-22T05:29:15.053Z,999.17
2019-04-22T05:31:15.773Z,999.20
2019-04-22T05:32:14.713Z,999.22
2019-04-22T05:33:08.763Z,999.25
2019-04-22T05:34:08.209Z,999.18
2019-04-22T05:36:12.721Z,999.26
2019-04-22T05:37:11.223Z,999.20
2019-04-22T05:38:09.900Z,999.23
2019-04-22T05:39:13.925Z,999.21
2019-04-22T05:40:16.359Z,999.13
2019-04-22T05:41:10.202Z,999.17
2019-04-22T05:42:11.079Z,999.16
2019-04-22T05:43:08.184Z,999.19
2019-04-22T05:44:08.378Z,999.18
2019-04-22T05:45:12.003Z,999.16
2019-04-22T05:46:09.508Z,999.18
2019-04-22T05:47:08.576Z,999.16
2019-04-22T05:48:27.379Z,999.13
2019-04-22T05:49:13.233Z,999.16
2019-04-22T05:50:13.315Z,999.17
2019-04-22T05:51:09.980Z,999.15
2019-04-22T05:52:11.133Z,999.17
2019-04-22T05:53:19.513Z,999.21
2019-04-22T05:54:13.315Z,999.22
2019-04-22T05:55:09.704Z,999.20
2019-04-22T05:56:15.411Z,999.24
2019-04-22T05:57:10.313Z,999.20
2019-04-22T05:58:10.795Z,999.17
2019-04-22T05:59:15.898Z,999.25
2019-04-22T06:02:13.683Z,999.21
2019-04-22T06:03:20.848Z,999.19
2019-04-22T06:05:11.178Z,999.26
2019-04-22T06:06:09.378Z,999.20
2019-04-22T06:07:09.686Z,999.16
2019-04-22T06:08:03.920Z,999.17
2019-04-22T06:09:10.487Z,999.23
2019-04-22T06:10:11.697Z,999.22
2019-04-22T06:11:14.864Z,999.18
2019-04-22T06:12:09.444Z,999.19
2019-04-22T06:13:01.027Z,999.24
2019-04-22T06:14:02.304Z,999.17
2019-04-22T06:15:05.067Z,999.13
2019-04-22T06:16:07.405Z,999.18
2019-04-22T06:17:10.808Z,999.20
2019-04-22T06:19:08.641Z,999.21
2019-04-22T06:20:13.731Z,999.21
2019-04-22T06:22:12.834Z,999.16
2019-04-22T06:24:23.656Z,999.16
2019-04-22T06:25:10.369Z,999.17
2019-04-22T06:26:24.018Z,999.21
2019-04-22T06:28:13.576Z,999.19
2019-04-22T06:29:09.354Z,999.14
2019-04-22T06:30:10.916Z,999.22
2019-04-22T06:31:11.038Z,999.14
2019-04-22T06:34:17.930Z,999.15
2019-04-22T06:35:20.865Z,999.09
2019-04-22T06:36:08.178Z,999.15
2019-04-22T06:37:12.840Z,999.12
2019-04-22T06:39:10.459Z,999.15
2019-04-22T06:40:10.961Z,999.14
2019-04-22T06:41:16.375Z,999.18
2019-04-22T06:42:08.915Z,999.07
2019-04-22T06:43:08.819Z,999.06
2019-04-22T06:44:14.392Z,999.07
2019-04-22T06:45:21.865Z,999.02
2019-04-22T06:46:10.043Z,999.05
2019-04-22T06:47:10.491Z,999.08
2019-04-22T06:48:13.148Z,999.08
2019-04-22T06:49:12.873Z,999.11
2019-04-22T06:50:12.502Z,999.11
2019-04-22T06:51:07.703Z,999.08
2019-04-22T06:52:14.166Z,999.09
2019-04-22T06:53:23.721Z,999.16
2019-04-22T06:54:07.733Z,999.12
2019-04-22T06:55:07.882Z,999.08
2019-04-22T06:56:12.544Z,999.08
2019-04-22T06:57:06.195Z,999.04
2019-04-22T06:58:04.973Z,999.03
2019-04-22T06:59:10.019Z,999.02
2019-04-22T07:00:11.850Z,999.02
2019-04-22T07:01:09.581Z,999.01
2019-04-22T07:02:14.372Z,999.09
2019-04-22T07:04:03.068Z,999.05
2019-04-22T07:05:07.807Z,999.11
2019-04-22T07:06:11.498Z,999.03
2019-04-22T07:07:12.688Z,998.95
2019-04-22T07:08:16.069Z,999.00
2019-04-22T07:10:16.711Z,998.94
2019-04-22T07:11:02.794Z,998.92
2019-04-22T07:12:11.538Z,998.82
2019-04-22T07:13:11.498Z,998.85
2019-04-22T07:14:13.331Z,998.90
2019-04-22T07:15:12.815Z,998.90
2019-04-22T07:16:03.971Z,998.86
2019-04-22T07:17:11.141Z,998.84
2019-04-22T07:18:18.508Z,998.93
2019-04-22T07:19:07.343Z,998.88
2019-04-22T07:20:04.249Z,998.73
2019-04-22T07:21:09.922Z,998.78
2019-04-22T07:22:11.166Z,998.84
2019-04-22T07:23:07.937Z,998.80
2019-04-22T07:24:27.474Z,998.80
2019-04-22T07:25:06.249Z,998.86
2019-04-22T07:26:04.305Z,998.85
2019-04-22T07:27:18.899Z,998.80
2019-04-22T07:28:08.364Z,998.80
2019-04-22T07:29:13.068Z,998.76
2019-04-22T07:30:15.453Z,998.79
2019-04-22T07:31:04.028Z,998.80
2019-04-22T07:32:07.867Z,998.82
2019-04-22T07:34:15.989Z,998.79
2019-04-22T07:35:08.736Z,998.76
2019-04-22T07:38:11.118Z,998.82
2019-04-22T07:39:05.639Z,998.69
2019-04-22T07:40:10.281Z,998.70
2019-04-22T07:41:05.402Z,998.72
2019-04-22T07:42:09.397Z,998.78
2019-04-22T07:43:15.520Z,998.71
2019-04-22T07:45:28.161Z,998.69
2019-04-22T07:46:00.037Z,998.62
2019-04-22T07:47:13.946Z,998.65
2019-04-22T07:48:21.964Z,998.62
2019-04-22T07:50:19.137Z,998.64
2019-04-22T07:51:13.497Z,998.66
2019-04-22T07:52:05.166Z,998.59
2019-04-22T07:53:08.370Z,998.59
2019-04-22T07:54:06.513Z,998.60
2019-04-22T07:55:01.055Z,998.66
2019-04-22T07:56:05.469Z,998.60
2019-04-22T07:57:14.805Z,998.64
2019-04-22T07:58:05.360Z,998.58
2019-04-22T07:59:11.983Z,998.53
2019-04-22T08:00:08.806Z,998.55
2019-04-22T08:01:12.089Z,998.52
2019-04-22T08:02:10.266Z,998.43
2019-04-22T08:03:11.870Z,998.49
2019-04-22T08:04:21.681Z,998.44
2019-04-22T08:06:13.571Z,998.39
2019-04-22T08:08:13.371Z,998.38
2019-04-22T08:09:11.351Z,998.44
2019-04-22T08:11:22.426Z,998.47
2019-04-22T08:12:02.968Z,998.43
2019-04-22T08:13:14.071Z,998.48
2019-04-22T08:14:07.688Z,998.48
2019-04-22T08:15:06.125Z,998.47
2019-04-22T08:16:02.682Z,998.44
2019-04-22T08:17:30.696Z,998.42
2019-04-22T08:18:22.378Z,998.36
2019-04-22T08:19:09.182Z,998.37
2019-04-22T08:20:09.136Z,998.44
2019-04-22T08:21:04.243Z,998.42
2019-04-22T08:22:02.839Z,998.32
2019-04-22T08:23:10.573Z,998.37
2019-04-22T08:24:34.192Z,998.33
2019-04-22T08:25:05.470Z,998.25
2019-04-22T08:26:00.942Z,998.30
2019-04-22T08:28:13.389Z,998.34
2019-04-22T08:29:06.816Z,998.20
2019-04-22T08:31:10.375Z,998.23
2019-04-22T08:32:05.013Z,998.31
2019-04-22T08:33:13.887Z,998.25
2019-04-22T08:34:12.065Z,998.15
2019-04-22T08:35:15.971Z,998.17
2019-04-22T08:37:35.438Z,998.24
2019-04-22T08:38:06.865Z,998.14
2019-04-22T08:39:07.891Z,998.21
2019-04-22T08:40:15.016Z,998.15
2019-04-22T08:41:06.599Z,998.27
2019-04-22T08:42:10.923Z,998.22
2019-04-22T08:43:15.582Z,998.24
2019-04-22T08:44:07.651Z,998.23
2019-04-22T08:46:17.362Z,998.27
2019-04-22T08:47:11.211Z,998.13
2019-04-22T08:48:03.023Z,998.02
2019-04-22T08:49:18.875Z,997.89
2019-04-22T08:50:11.548Z,997.98
2019-04-22T08:51:08.488Z,997.98
2019-04-22T08:52:10.796Z,997.97
2019-04-22T08:53:12.498Z,997.99
2019-04-22T08:54:10.142Z,997.98
2019-04-22T08:56:17.203Z,997.88
2019-04-22T08:57:11.041Z,997.90
2019-04-22T08:58:23.067Z,997.80
2019-04-22T08:59:08.237Z,997.86
2019-04-22T09:00:07.150Z,997.82
2019-04-22T09:02:16.320Z,997.72
2019-04-22T09:03:04.713Z,997.70
2019-04-22T09:05:18.938Z,997.75
2019-04-22T09:06:17.714Z,997.63
2019-04-22T09:08:15.662Z,997.64
2019-04-22T09:09:06.186Z,997.60
2019-04-22T09:10:14.857Z,997.57
2019-04-22T09:11:09.148Z,997.55
2019-04-22T09:12:08.217Z,997.54
2019-04-22T09:13:09.471Z,997.45
2019-04-22T09:14:11.641Z,997.46
2019-04-22T09:15:02.442Z,997.48
2019-04-22T09:16:16.619Z,997.48
2019-04-22T09:17:10.385Z,997.52
2019-04-22T09:18:09.913Z,997.43
2019-04-22T09:19:15.417Z,997.49
2019-04-22T09:20:06.459Z,997.38
2019-04-22T09:21:14.187Z,997.45
2019-04-22T09:22:06.345Z,997.44
2019-04-22T09:23:07.682Z,997.44
2019-04-22T09:24:23.205Z,997.39
2019-04-22T09:25:03.245Z,997.33
2019-04-22T09:26:08.885Z,997.28
2019-04-22T09:27:11.213Z,997.29
2019-04-22T09:28:00.782Z,997.30
2019-04-22T09:29:05.113Z,997.32
2019-04-22T09:30:16.903Z,997.30
2019-04-22T09:31:06.621Z,997.28
2019-04-22T09:32:20.250Z,997.36
2019-04-22T09:33:09.941Z,997.23
2019-04-22T09:33:53.636Z,997.32
2019-04-22T09:35:03.429Z,997.27
2019-04-22T09:36:16.471Z,997.25
2019-04-22T09:37:14.426Z,997.26
2019-04-22T09:38:19.023Z,997.28
2019-04-22T09:39:00.855Z,997.28
2019-04-22T09:40:13.991Z,997.25
2019-04-22T09:41:14.805Z,997.27
2019-04-22T09:42:05.138Z,997.06
2019-04-22T09:43:04.671Z,997.12
2019-04-22T09:44:02.398Z,997.12
2019-04-22T09:45:06.146Z,997.07
2019-04-22T09:46:06.528Z,997.07
2019-04-22T09:47:07.380Z,997.01
2019-04-22T09:48:10.530Z,997.05
2019-04-22T09:50:24.323Z,996.97
2019-04-22T09:51:07.031Z,996.91
2019-04-22T09:52:10.149Z,996.96
2019-04-22T09:53:08.067Z,996.94
2019-04-22T09:54:20.187Z,996.92
2019-04-22T09:55:12.976Z,996.84
2019-04-22T09:56:03.994Z,996.91
2019-04-22T09:57:01.548Z,996.92
2019-04-22T09:58:02.862Z,997.06
2019-04-22T09:59:05.103Z,996.94
2019-04-22T10:01:13.970Z,996.90
2019-04-22T10:02:19.858Z,996.83
2019-04-22T10:03:13.663Z,996.78
2019-04-22T10:05:07.611Z,996.77
2019-04-22T10:06:16.527Z,996.77
2019-04-22T10:06:59.718Z,996.77
2019-04-22T10:08:08.133Z,996.70
2019-04-22T10:09:25.914Z,996.66
2019-04-22T10:10:09.062Z,996.64
2019-04-22T10:11:04.731Z,996.65
2019-04-22T10:12:08.474Z,996.58
2019-04-22T10:13:10.527Z,996.52
2019-04-22T10:14:17.037Z,996.59
2019-04-22T10:15:00.255Z,996.55
2019-04-22T10:16:15.426Z,996.59
2019-04-22T10:16:59.996Z,996.50
2019-04-22T10:18:04.116Z,996.43
2019-04-22T10:19:04.244Z,996.41
2019-04-22T10:20:06.743Z,996.45
2019-04-22T10:21:08.401Z,996.44
2019-04-22T10:22:07.320Z,996.41
2019-04-22T10:23:05.451Z,996.40
2019-04-22T10:24:03.124Z,996.55
2019-04-22T10:25:10.809Z,996.47
2019-04-22T10:26:04.831Z,996.48
2019-04-22T10:27:02.139Z,996.36
2019-04-22T10:28:01.235Z,996.35
2019-04-22T10:29:09.096Z,996.36
2019-04-22T10:30:05.383Z,996.41
2019-04-22T10:31:03.318Z,996.41
2019-04-22T10:32:00.773Z,996.36
2019-04-22T10:33:00.254Z,996.29
2019-04-22T10:33:56.272Z,996.39
2019-04-22T10:34:47.282Z,996.41
2019-04-22T10:35:45.642Z,996.32
2019-04-22T10:36:39.762Z,996.31
2019-04-22T10:37:38.795Z,996.22
2019-04-22T10:38:38.386Z,996.25
2019-04-22T10:39:45.848Z,996.36
2019-04-22T10:40:40.758Z,996.35
2019-04-22T10:41:38.949Z,996.40
2019-04-22T10:42:38.877Z,996.43
2019-04-22T10:43:39.160Z,996.33
2019-04-22T10:44:39.256Z,996.35
2019-04-22T10:45:39.697Z,996.33
2019-04-22T10:46:44.347Z,996.18
2019-04-22T10:47:38.356Z,996.19
2019-04-22T10:48:38.279Z,996.13
2019-04-22T10:49:38.451Z,996.33
2019-04-22T10:50:39.361Z,996.25
2019-04-22T10:51:38.250Z,995.92
2019-04-22T10:52:39.375Z,996.05
2019-04-22T10:53:39.556Z,996.08
2019-04-22T10:54:38.208Z,996.09
2019-04-22T10:55:41.684Z,996.01
2019-04-22T10:56:39.216Z,995.92
2019-04-22T10:57:44.400Z,995.92
2019-04-22T10:58:38.509Z,995.92
2019-04-22T10:59:38.556Z,995.89
2019-04-22T11:00:38.143Z,995.96
2019-04-22T11:01:38.636Z,995.84
2019-04-22T11:02:39.371Z,995.76
2019-04-22T11:03:39.491Z,995.89
2019-04-22T11:04:38.641Z,995.77
2019-04-22T11:05:38.087Z,995.80
2019-04-22T11:06:42.579Z,995.81
2019-04-22T11:07:44.248Z,995.75
2019-04-22T11:08:51.454Z,995.71
2019-04-22T11:09:50.756Z,995.78
2019-04-22T11:10:59.086Z,995.81
2019-04-22T11:11:48.916Z,995.71
2019-04-22T11:12:40.993Z,995.72
2019-04-22T11:13:37.999Z,995.69
2019-04-22T11:14:41.386Z,995.65
2019-04-22T11:15:40.349Z,995.61
2019-04-22T11:16:39.383Z,995.59
2019-04-22T11:17:37.970Z,995.66
2019-04-22T11:18:37.947Z,995.61
2019-04-22T11:19:43.587Z,995.67
2019-04-22T11:20:37.923Z,995.62
2019-04-22T11:21:37.953Z,995.60
2019-04-22T11:22:38.883Z,995.66
2019-04-22T11:23:38.673Z,995.67
2019-04-22T11:24:38.916Z,995.65
2019-04-22T11:25:37.880Z,995.50
2019-04-22T11:26:38.853Z,995.56
2019-04-22T11:27:39.070Z,995.55
2019-04-22T11:28:38.119Z,995.58
2019-04-22T11:29:39.289Z,995.55
2019-04-22T11:30:42.904Z,995.53
2019-04-22T11:31:38.792Z,995.51
2019-04-22T11:32:38.239Z,995.53
2019-04-22T11:33:38.587Z,995.50
2019-04-22T11:34:37.782Z,995.47
2019-04-22T11:35:37.753Z,995.58
2019-04-22T11:36:38.940Z,995.54
2019-04-22T11:37:38.738Z,995.62
2019-04-22T11:38:48.758Z,995.56
2019-04-22T11:39:38.724Z,995.40
2019-04-22T11:40:41.735Z,995.45
2019-04-22T11:41:44.373Z,995.50
2019-04-22T11:42:38.500Z,995.53
2019-04-22T11:43:38.966Z,995.35
2019-04-22T11:44:38.870Z,995.37
2019-04-22T11:45:37.662Z,995.36
2019-04-22T11:46:39.081Z,995.41
2019-04-22T11:47:37.637Z,995.51
2019-04-22T11:48:38.121Z,995.37
2019-04-22T11:49:37.599Z,995.36
2019-04-22T11:50:37.727Z,995.42
2019-04-22T11:51:38.079Z,995.36
2019-04-22T11:52:42.743Z,995.47
2019-04-22T11:53:38.641Z,995.35
2019-04-22T11:54:38.859Z,995.27
2019-04-22T11:55:37.548Z,995.36
2019-04-22T11:56:38.818Z,995.30
2019-04-22T11:57:38.855Z,995.27
2019-04-22T11:58:38.924Z,995.30
2019-04-22T11:59:38.549Z,995.28
2019-04-22T12:00:38.859Z,995.27
2019-04-22T12:01:38.758Z,995.31
2019-04-22T12:02:38.812Z,995.24
2019-04-22T12:03:44.106Z,995.23
2019-04-22T12:04:38.141Z,995.16
2019-04-22T12:05:37.641Z,995.28
2019-04-22T12:06:37.858Z,995.28
2019-04-22T12:07:38.986Z,995.21
2019-04-22T12:08:37.497Z,995.29
2019-04-22T12:09:37.640Z,995.22
2019-04-22T12:10:45.047Z,995.15
2019-04-22T12:11:38.593Z,995.22
2019-04-22T12:12:37.349Z,995.17
2019-04-22T12:13:37.946Z,995.16
2019-04-22T12:14:42.506Z,995.17
2019-04-22T12:15:37.465Z,995.17
2019-04-22T12:16:37.307Z,995.25
2019-04-22T12:17:38.169Z,995.14
2019-04-22T12:18:37.417Z,995.11
2019-04-22T12:19:37.908Z,994.98
2019-04-22T12:20:37.298Z,995.02
2019-04-22T12:21:37.260Z,994.98
2019-04-22T12:22:38.825Z,995.04
2019-04-22T12:23:37.247Z,995.02
2019-04-22T12:24:38.405Z,994.89
2019-04-22T12:25:51.618Z,994.91
2019-04-22T12:26:38.200Z,994.95
2019-04-22T12:27:37.184Z,994.83
2019-04-22T12:28:37.185Z,994.82
2019-04-22T12:29:38.597Z,994.82
2019-04-22T12:30:37.469Z,994.79
2019-04-22T12:31:37.666Z,994.85
2019-04-22T12:32:37.131Z,994.79
2019-04-22T12:33:37.221Z,994.77
2019-04-22T12:34:37.679Z,994.83
2019-04-22T12:35:37.096Z,994.82
2019-04-22T12:36:42.699Z,994.69
2019-04-22T12:37:47.061Z,994.75
2019-04-22T12:38:39.507Z,994.80
2019-04-22T12:39:37.058Z,994.77
2019-04-22T12:40:42.442Z,994.71
2019-04-22T12:41:38.355Z,994.70
2019-04-22T12:42:37.560Z,994.67
2019-04-22T12:43:37.316Z,994.58
2019-04-22T12:44:39.178Z,994.68
2019-04-22T12:45:38.454Z,994.68
2019-04-22T12:46:38.365Z,994.61
2019-04-22T12:47:42.262Z,994.60
2019-04-22T12:48:37.157Z,994.60
2019-04-22T12:49:40.465Z,994.52
2019-04-22T12:50:41.772Z,994.56
2019-04-22T12:51:38.867Z,994.54
2019-04-22T12:52:45.757Z,994.60
2019-04-22T12:53:38.095Z,994.49
2019-04-22T12:54:37.312Z,994.49
2019-04-22T12:55:37.568Z,994.47
2019-04-22T12:56:37.596Z,994.43
2019-04-22T12:57:36.907Z,994.44
2019-04-22T12:58:43.123Z,994.33
2019-04-22T12:59:37.378Z,994.37
2019-04-22T13:00:38.340Z,994.31
2019-04-22T13:01:37.191Z,994.34
2019-04-22T13:02:36.803Z,994.29
2019-04-22T13:03:38.195Z,994.23
2019-04-22T13:04:38.395Z,994.23
2019-04-22T13:05:37.577Z,994.23
2019-04-22T13:06:37.556Z,994.18
2019-04-22T13:07:38.034Z,994.19
2019-04-22T13:08:37.931Z,994.12
2019-04-22T13:09:43.202Z,994.18
2019-04-22T13:10:45.760Z,994.13
2019-04-22T13:11:38.911Z,994.11
2019-04-22T13:12:37.177Z,994.11
2019-04-22T13:13:36.873Z,994.09
2019-04-22T13:14:36.969Z,994.11
2019-04-22T13:15:37.040Z,994.14
2019-04-22T13:16:36.640Z,994.09
2019-04-22T13:17:37.959Z,994.04
2019-04-22T13:18:43.689Z,994.09
2019-04-22T13:19:38.082Z,994.09
2019-04-22T13:20:42.178Z,994.04
2019-04-22T13:21:36.647Z,994.02
2019-04-22T13:22:36.909Z,993.98
2019-04-22T13:23:36.951Z,993.94
2019-04-22T13:24:36.566Z,993.98
2019-04-22T13:25:36.717Z,993.95
2019-04-22T13:26:38.061Z,993.99
2019-04-22T13:27:37.125Z,993.95
2019-04-22T13:28:36.858Z,993.92
2019-04-22T13:29:37.194Z,993.87
2019-04-22T13:30:36.910Z,993.88
2019-04-22T13:31:42.500Z,993.76
2019-04-22T13:32:36.791Z,993.73
2019-04-22T13:33:36.980Z,993.74
2019-04-22T13:34:43.895Z,993.77
2019-04-22T13:35:37.433Z,993.79
2019-04-22T13:36:36.709Z,993.78
2019-04-22T13:37:36.991Z,993.67
2019-04-22T13:38:38.382Z,993.58
2019-04-22T13:39:36.727Z,993.64
2019-04-22T13:40:37.076Z,993.69
2019-04-22T13:41:44.004Z,993.66
2019-04-22T13:42:42.804Z,993.59
2019-04-22T13:43:36.651Z,993.54
2019-04-22T13:44:37.729Z,993.59
2019-04-22T13:45:36.323Z,993.51
2019-04-22T13:46:38.383Z,993.47
2019-04-22T13:47:54.671Z,993.48
2019-04-22T13:48:59.151Z,993.47
2019-04-22T13:50:06.069Z,993.46
2019-04-22T13:51:08.096Z,993.44
2019-04-22T13:52:15.421Z,993.40